Portada
METAR-TAF:

METAR-TAF

Aeroports :

El Salvador, El Salvador

latitud: 13-26N, longitud: 089-03W, altitud: 25 m

Observació

L'informe es va fer fa 30 minuts, a les 01:50 UTC
Vent 5 kt del Nord/Nord-Oest, variant entre Oest/Nord-Oest i Nord
Temperatura 25°C
Humitat 69%
Pressió 1013 hPa
Visibilitat 10 km o més
sense núvols per sota de 1500 mi sense presència de cumulonimbus.

METAR: MSLP 180150Z 33005KT 290V350 CAVOK 25/19 Q1012 A2990 NOSIG

Hora: 20:20 (02:20 UTC)

Pronòstic

L'informe es va fer fa 4 hores i 55 minuts, a les 21:25 UTC
Pronòstic vàlid del 18 a les 00 UTC al 18 a les 24 UTC
Vent 8 kt del Nord/Nord-Est amb ràfegues de 18 kt
Visibilitat 10 km o més
sense núvols per sota de 1500 mi sense presència de cumulonimbus.
A partir de les 18 a les 1700 UTC
Vent 6 kt del Sud/Sud-Oest
Visibilitat 10 km o més
Escasses núvols a una alçada de 6000 ft

TAF: MSLP 172125Z 1800/1824 02008G18KT CAVOK TX34/1819Z TN21/1812Z FM181700 21006KT 9999 FEW060

Observacions i pronòstics meteorològics de més de 4000 aeroports (METAR i TAF).

Les estacions disponibles són els punts grocs i vermells al mapa.

Posi el ratolí al punt desitjat per veure el nom de l'estació.

Feu clic per veure les observacions i els pronòstics meteorològics.

Per canviar el mapa: feu clic els botons verds amb una creu de color negre per apropar; al botó verd amb un guió per allunyar la imatge; o en les fletxes verdes per a mapes adjacents.


METAR-TAF: